CES2899 ZSNJ-ZGKL
Flight info
| Callsign | CES2899 |
|---|---|
| Flight time | 1h 53m |
| Altitude | 34100 |
| Route | HFE W50 XSH W80 UDUMI W37 OLMIB W83 GOSMA R343 ONEMI |
| Aircraft | A320/M-SDE1FGHIJ1RWXYZ/LB1 |
Departure
| Time | 2026-05-04 07:08 |
|---|---|
| Airport | Nanjing Lukou International Airport (ZSNJ) |
Arrival
| Time | 2026-05-04 09:01 |
|---|---|
| Airport | Guilin Liangjiang International Airport (ZGKL) |
| Time | Latitude | Longitude | Altitude | Speed | Heading |
|---|---|---|---|---|---|
| 2026-05-04 06:38 | 31.73076 | 118.87083 | 49 ft | 0 kts | 329° |
| 2026-05-04 06:55 | 31.73071 | 118.87086 | 50 ft | 2 kts | 329° |
| 2026-05-04 06:56 | 31.73058 | 118.87095 | 49 ft | 2 kts | 329° |
| 2026-05-04 06:57 | 31.72974 | 118.87109 | 50 ft | 0 kts | 63° |
| 2026-05-04 07:01 | 31.73134 | 118.87407 | 49 ft | 17 kts | 59° |
| 2026-05-04 07:01 | 31.73202 | 118.87535 | 50 ft | 19 kts | 58° |
| 2026-05-04 07:02 | 31.73275 | 118.87671 | 50 ft | 19 kts | 58° |
| 2026-05-04 07:02 | 31.73335 | 118.87784 | 50 ft | 9 kts | 59° |
| 2026-05-04 07:02 | 31.73315 | 118.87845 | 50 ft | 9 kts | 148° |
| 2026-05-04 07:02 | 31.73248 | 118.87894 | 50 ft | 12 kts | 148° |
| 2026-05-04 07:03 | 31.73172 | 118.87949 | 49 ft | 10 kts | 148° |
| 2026-05-04 07:03 | 31.73165 | 118.87954 | 50 ft | 0 kts | 148° |
| 2026-05-04 07:04 | 31.73163 | 118.87956 | 50 ft | 0 kts | 148° |
| 2026-05-04 07:05 | 31.73159 | 118.87959 | 50 ft | 2 kts | 148° |
| 2026-05-04 07:05 | 31.73128 | 118.87981 | 49 ft | 8 kts | 149° |
| 2026-05-04 07:06 | 31.73025 | 118.87949 | 49 ft | 0 kts | 237° |
| 2026-05-04 07:06 | 31.73018 | 118.87936 | 49 ft | 6 kts | 237° |
| 2026-05-04 07:06 | 31.72874 | 118.87668 | 50 ft | 75 kts | 238° |
| 2026-05-04 07:07 | 31.72466 | 118.86906 | 50 ft | 139 kts | 238° |
| 2026-05-04 07:08 | 31.68266 | 118.79036 | 3336 ft | 167 kts | 238° |
| 2026-05-04 07:09 | 31.67687 | 118.77763 | 3644 ft | 182 kts | 252° |
| 2026-05-04 07:09 | 31.67512 | 118.76212 | 3944 ft | 198 kts | 268° |
| 2026-05-04 07:09 | 31.67501 | 118.74507 | 4247 ft | 215 kts | 270° |
| 2026-05-04 07:09 | 31.67499 | 118.72637 | 4523 ft | 236 kts | 269° |
| 2026-05-04 07:10 | 31.67480 | 118.70624 | 4933 ft | 252 kts | 269° |
| 2026-05-04 07:10 | 31.67454 | 118.68477 | 5350 ft | 267 kts | 269° |
| 2026-05-04 07:12 | 31.67223 | 118.52305 | 10626 ft | 296 kts | 269° |
| 2026-05-04 07:12 | 31.67181 | 118.49771 | 10917 ft | 312 kts | 270° |
| 2026-05-04 07:12 | 31.67139 | 118.47113 | 11198 ft | 327 kts | 271° |
| 2026-05-04 07:12 | 31.67097 | 118.44380 | 11788 ft | 331 kts | 271° |
| 2026-05-04 07:13 | 31.67055 | 118.41670 | 12535 ft | 327 kts | 272° |
| 2026-05-04 07:13 | 31.67015 | 118.38956 | 13274 ft | 327 kts | 272° |
| 2026-05-04 07:13 | 31.66979 | 118.36252 | 13910 ft | 328 kts | 271° |
| 2026-05-04 07:14 | 31.66790 | 118.25077 | 16335 ft | 339 kts | 270° |
| 2026-05-04 07:14 | 31.66740 | 118.22219 | 16961 ft | 341 kts | 270° |
| 2026-05-04 07:15 | 31.66690 | 118.19355 | 17572 ft | 342 kts | 270° |
| 2026-05-04 07:15 | 31.66550 | 118.16496 | 18136 ft | 346 kts | 266° |
| 2026-05-04 07:15 | 31.66291 | 118.13630 | 18685 ft | 348 kts | 265° |
| 2026-05-04 07:15 | 31.66017 | 118.10755 | 19254 ft | 349 kts | 265° |
| 2026-05-04 07:16 | 31.65736 | 118.07833 | 19767 ft | 352 kts | 265° |
| 2026-05-04 07:16 | 31.65455 | 118.04893 | 20282 ft | 354 kts | 265° |
| 2026-05-04 07:16 | 31.65173 | 118.01966 | 20799 ft | 356 kts | 265° |
| 2026-05-04 07:16 | 31.64891 | 117.99022 | 21305 ft | 357 kts | 265° |
| 2026-05-04 07:17 | 31.64606 | 117.96054 | 21791 ft | 359 kts | 265° |
| 2026-05-04 07:17 | 31.64320 | 117.93065 | 22240 ft | 362 kts | 265° |
| 2026-05-04 07:17 | 31.64032 | 117.90058 | 22689 ft | 365 kts | 265° |
| 2026-05-04 07:17 | 31.63741 | 117.87033 | 23149 ft | 366 kts | 265° |
| 2026-05-04 07:18 | 31.63444 | 117.83987 | 23623 ft | 368 kts | 265° |
| 2026-05-04 07:18 | 31.63150 | 117.80941 | 24102 ft | 368 kts | 265° |
| 2026-05-04 07:18 | 31.62854 | 117.77906 | 24579 ft | 369 kts | 265° |
| 2026-05-04 07:18 | 31.62553 | 117.74840 | 25014 ft | 369 kts | 264° |
| 2026-05-04 07:19 | 31.62250 | 117.71764 | 25412 ft | 371 kts | 264° |
| 2026-05-04 07:19 | 31.61942 | 117.68650 | 25678 ft | 376 kts | 264° |
| 2026-05-04 07:19 | 31.61632 | 117.65526 | 26015 ft | 378 kts | 264° |
| 2026-05-04 07:19 | 31.61323 | 117.62379 | 26364 ft | 378 kts | 265° |
| 2026-05-04 07:20 | 31.61375 | 117.59223 | 26715 ft | 380 kts | 278° |
| 2026-05-04 07:20 | 31.62101 | 117.56143 | 27043 ft | 385 kts | 290° |
| 2026-05-04 07:20 | 31.63443 | 117.53315 | 27397 ft | 391 kts | 300° |
| 2026-05-04 07:20 | 31.65044 | 117.50638 | 27722 ft | 393 kts | 301° |
| 2026-05-04 07:22 | 31.74230 | 117.30578 | 29661 ft | 389 kts | 269° |
| 2026-05-04 07:22 | 31.73965 | 117.27340 | 29922 ft | 390 kts | 259° |
| 2026-05-04 07:23 | 31.73154 | 117.24208 | 30178 ft | 392 kts | 249° |
| 2026-05-04 07:23 | 31.71811 | 117.21322 | 30410 ft | 397 kts | 239° |
| 2026-05-04 07:23 | 31.70139 | 117.18650 | 30658 ft | 398 kts | 237° |
| 2026-05-04 07:23 | 31.68449 | 117.15968 | 30989 ft | 396 kts | 237° |
| 2026-05-04 07:24 | 31.66748 | 117.13313 | 31252 ft | 396 kts | 237° |
| 2026-05-04 07:24 | 31.65060 | 117.10695 | 31553 ft | 394 kts | 237° |
| 2026-05-04 07:24 | 31.63354 | 117.08062 | 31856 ft | 392 kts | 237° |
| 2026-05-04 07:24 | 31.61664 | 117.05448 | 32154 ft | 390 kts | 237° |
| 2026-05-04 07:25 | 31.59971 | 117.02858 | 32438 ft | 389 kts | 237° |
| 2026-05-04 07:26 | 31.48057 | 116.84851 | 33709 ft | 390 kts | 237° |
| 2026-05-04 07:27 | 31.46364 | 116.82278 | 33863 ft | 389 kts | 237° |
| 2026-05-04 07:27 | 31.44684 | 116.79703 | 34014 ft | 388 kts | 237° |
| 2026-05-04 07:27 | 31.41299 | 116.74517 | 34101 ft | 390 kts | 238° |
| 2026-05-04 07:28 | 31.37903 | 116.69321 | 34106 ft | 391 kts | 238° |
| 2026-05-04 07:28 | 31.34501 | 116.64126 | 34216 ft | 391 kts | 238° |
| 2026-05-04 07:29 | 31.31099 | 116.58937 | 34151 ft | 389 kts | 237° |
| 2026-05-04 07:29 | 31.27706 | 116.53772 | 34149 ft | 389 kts | 238° |
| 2026-05-04 07:30 | 31.24322 | 116.48626 | 34158 ft | 389 kts | 238° |
| 2026-05-04 07:30 | 31.20932 | 116.43478 | 34168 ft | 389 kts | 238° |
| 2026-05-04 07:31 | 31.17546 | 116.38342 | 34180 ft | 388 kts | 238° |
| 2026-05-04 07:33 | 31.03942 | 116.17770 | 34195 ft | 388 kts | 237° |
| 2026-05-04 07:33 | 31.00555 | 116.12660 | 34196 ft | 387 kts | 237° |
| 2026-05-04 07:34 | 30.97170 | 116.07562 | 34199 ft | 387 kts | 237° |
| 2026-05-04 07:34 | 30.93782 | 116.02461 | 34197 ft | 389 kts | 237° |
| 2026-05-04 07:35 | 30.90379 | 115.97345 | 34195 ft | 389 kts | 237° |
| 2026-05-04 07:35 | 30.86967 | 115.92224 | 34179 ft | 388 kts | 237° |
| 2026-05-04 07:36 | 30.83585 | 115.87135 | 34172 ft | 388 kts | 237° |
| 2026-05-04 07:38 | 30.70138 | 115.66744 | 34140 ft | 387 kts | 237° |
| 2026-05-04 07:38 | 30.66797 | 115.61690 | 34135 ft | 386 kts | 237° |
| 2026-05-04 07:39 | 30.63444 | 115.56632 | 34135 ft | 386 kts | 238° |
| 2026-05-04 07:39 | 30.60064 | 115.51530 | 34130 ft | 387 kts | 237° |
| 2026-05-04 07:40 | 30.56696 | 115.46453 | 34129 ft | 386 kts | 238° |
| 2026-05-04 07:40 | 30.53328 | 115.41384 | 34125 ft | 386 kts | 238° |
| 2026-05-04 07:41 | 30.49956 | 115.36313 | 34124 ft | 386 kts | 238° |
| 2026-05-04 07:41 | 30.47158 | 115.30893 | 34121 ft | 380 kts | 248° |
| 2026-05-04 07:42 | 30.45416 | 115.24946 | 34120 ft | 379 kts | 258° |
| 2026-05-04 07:42 | 30.44772 | 115.18760 | 34119 ft | 380 kts | 268° |
| 2026-05-04 07:43 | 30.45152 | 115.12482 | 34117 ft | 381 kts | 273° |
| 2026-05-04 07:43 | 30.45761 | 115.06219 | 34121 ft | 382 kts | 274° |
| 2026-05-04 07:44 | 30.46392 | 114.99912 | 34121 ft | 383 kts | 274° |
| 2026-05-04 07:44 | 30.47018 | 114.93656 | 34115 ft | 383 kts | 274° |
| 2026-05-04 07:45 | 30.47649 | 114.87370 | 34116 ft | 383 kts | 274° |
| 2026-05-04 07:45 | 30.48280 | 114.81089 | 34111 ft | 383 kts | 274° |
| 2026-05-04 07:46 | 30.48911 | 114.74779 | 34110 ft | 383 kts | 274° |
| 2026-05-04 07:46 | 30.49537 | 114.68495 | 34105 ft | 384 kts | 274° |
| 2026-05-04 07:47 | 30.50162 | 114.62156 | 34103 ft | 384 kts | 274° |
| 2026-05-04 07:49 | 30.52633 | 114.36863 | 34101 ft | 384 kts | 274° |
| 2026-05-04 07:49 | 30.53246 | 114.30509 | 34101 ft | 383 kts | 274° |
| 2026-05-04 07:50 | 30.53849 | 114.24209 | 34098 ft | 384 kts | 274° |
| 2026-05-04 07:50 | 30.54343 | 114.17871 | 34083 ft | 384 kts | 266° |
| 2026-05-04 07:51 | 30.53930 | 114.14754 | 34089 ft | 384 kts | 255° |
| 2026-05-04 07:51 | 30.52931 | 114.11815 | 34089 ft | 386 kts | 245° |
| 2026-05-04 07:51 | 30.51379 | 114.09156 | 34090 ft | 394 kts | 234° |
| 2026-05-04 07:51 | 30.49309 | 114.06906 | 34088 ft | 403 kts | 223° |
| 2026-05-04 07:52 | 30.46775 | 114.05218 | 34088 ft | 416 kts | 211° |
| 2026-05-04 07:52 | 30.43886 | 114.04240 | 34086 ft | 434 kts | 198° |
| 2026-05-04 07:52 | 30.40742 | 114.04078 | 34092 ft | 449 kts | 187° |
| 2026-05-04 07:52 | 30.37567 | 114.04125 | 34083 ft | 440 kts | 193° |
| 2026-05-04 07:53 | 30.34523 | 114.03554 | 34081 ft | 423 kts | 206° |
| 2026-05-04 07:54 | 30.15822 | 113.93787 | 34087 ft | 411 kts | 213° |
| 2026-05-04 07:55 | 30.10539 | 113.90963 | 34082 ft | 409 kts | 213° |
| 2026-05-04 07:55 | 30.05258 | 113.88139 | 34086 ft | 408 kts | 214° |
| 2026-05-04 07:56 | 29.99998 | 113.85329 | 34085 ft | 408 kts | 213° |
| 2026-05-04 07:56 | 29.94753 | 113.82532 | 34091 ft | 407 kts | 214° |
| 2026-05-04 07:57 | 29.89710 | 113.79399 | 34099 ft | 400 kts | 220° |
| 2026-05-04 07:57 | 29.84941 | 113.75700 | 34097 ft | 395 kts | 225° |
| 2026-05-04 07:58 | 29.80560 | 113.71532 | 34096 ft | 390 kts | 230° |
| 2026-05-04 07:58 | 29.76432 | 113.67197 | 34099 ft | 391 kts | 229° |
| 2026-05-04 07:59 | 29.72327 | 113.62890 | 34098 ft | 391 kts | 230° |
| 2026-05-04 07:59 | 29.68204 | 113.58556 | 34100 ft | 390 kts | 230° |
| 2026-05-04 08:00 | 29.64105 | 113.54252 | 34108 ft | 390 kts | 230° |
| 2026-05-04 08:02 | 29.47652 | 113.37006 | 34101 ft | 390 kts | 230° |
| 2026-05-04 08:02 | 29.43537 | 113.32704 | 34105 ft | 391 kts | 230° |
| 2026-05-04 08:03 | 29.39416 | 113.28400 | 34107 ft | 391 kts | 229° |
| 2026-05-04 08:03 | 29.35170 | 113.24170 | 34100 ft | 394 kts | 226° |
| 2026-05-04 08:04 | 29.30610 | 113.20341 | 34099 ft | 397 kts | 224° |
| 2026-05-04 08:04 | 29.25985 | 113.16551 | 34101 ft | 395 kts | 224° |
| 2026-05-04 08:05 | 29.21399 | 113.12810 | 34099 ft | 396 kts | 224° |
| 2026-05-04 08:05 | 29.16790 | 113.09059 | 34090 ft | 395 kts | 224° |
| 2026-05-04 08:06 | 29.12205 | 113.05342 | 34086 ft | 396 kts | 224° |
| 2026-05-04 08:06 | 29.07577 | 113.01600 | 34088 ft | 395 kts | 224° |
| 2026-05-04 08:08 | 28.89154 | 112.86731 | 34084 ft | 396 kts | 224° |
| 2026-05-04 08:11 | 28.68341 | 112.70009 | 34082 ft | 397 kts | 224° |
| 2026-05-04 08:11 | 28.61359 | 112.64418 | 34085 ft | 397 kts | 224° |
| 2026-05-04 08:12 | 28.56725 | 112.60713 | 34083 ft | 398 kts | 224° |
| 2026-05-04 08:12 | 28.52061 | 112.56986 | 34082 ft | 398 kts | 224° |
| 2026-05-04 08:13 | 28.47431 | 112.53294 | 34082 ft | 399 kts | 224° |
| 2026-05-04 08:13 | 28.42770 | 112.49577 | 34082 ft | 398 kts | 224° |
| 2026-05-04 08:14 | 28.38107 | 112.45867 | 34080 ft | 399 kts | 224° |
| 2026-05-04 08:16 | 28.19494 | 112.31083 | 34091 ft | 400 kts | 224° |
| 2026-05-04 08:16 | 28.14791 | 112.27356 | 34094 ft | 400 kts | 224° |
| 2026-05-04 08:17 | 28.10111 | 112.23649 | 34095 ft | 400 kts | 224° |
| 2026-05-04 08:17 | 28.05390 | 112.20032 | 34097 ft | 404 kts | 221° |
| 2026-05-04 08:19 | 27.85799 | 112.06252 | 34120 ft | 403 kts | 221° |
| 2026-05-04 08:20 | 27.80885 | 112.02821 | 34123 ft | 404 kts | 221° |
| 2026-05-04 08:20 | 27.75959 | 111.99381 | 34114 ft | 404 kts | 221° |
| 2026-05-04 08:21 | 27.71073 | 111.95974 | 34118 ft | 403 kts | 221° |
| 2026-05-04 08:21 | 27.66227 | 111.92596 | 34124 ft | 404 kts | 220° |
| 2026-05-04 08:22 | 27.61342 | 111.89194 | 34142 ft | 404 kts | 221° |
| 2026-05-04 08:24 | 27.41849 | 111.75649 | 34183 ft | 404 kts | 220° |
| 2026-05-04 08:24 | 27.36970 | 111.72269 | 34172 ft | 405 kts | 220° |
| 2026-05-04 08:25 | 27.32075 | 111.68883 | 34157 ft | 404 kts | 220° |
| 2026-05-04 08:25 | 27.27194 | 111.65509 | 34135 ft | 405 kts | 220° |
| 2026-05-04 08:27 | 27.07434 | 111.52170 | 34114 ft | 407 kts | 219° |
| 2026-05-04 08:28 | 27.02424 | 111.48875 | 34114 ft | 407 kts | 219° |
| 2026-05-04 08:28 | 26.97449 | 111.45603 | 34115 ft | 407 kts | 219° |
| 2026-05-04 08:29 | 26.92459 | 111.42316 | 34120 ft | 406 kts | 220° |
| 2026-05-04 08:31 | 26.72988 | 111.28087 | 34141 ft | 405 kts | 221° |
| 2026-05-04 08:33 | 26.53529 | 111.14057 | 34141 ft | 407 kts | 219° |
| 2026-05-04 08:35 | 26.33662 | 111.00615 | 34132 ft | 408 kts | 219° |
| 2026-05-04 08:35 | 26.28729 | 110.97262 | 34124 ft | 407 kts | 219° |
| 2026-05-04 08:37 | 26.14011 | 110.87221 | 31825 ft | 400 kts | 219° |
| 2026-05-04 08:37 | 26.11586 | 110.85570 | 31035 ft | 402 kts | 219° |
| 2026-05-04 08:37 | 26.09140 | 110.83904 | 30198 ft | 405 kts | 219° |
| 2026-05-04 08:38 | 26.06709 | 110.82253 | 29623 ft | 401 kts | 219° |
| 2026-05-04 08:38 | 26.04288 | 110.80610 | 29069 ft | 396 kts | 220° |
| 2026-05-04 08:38 | 26.01903 | 110.78990 | 28544 ft | 391 kts | 219° |
| 2026-05-04 08:40 | 25.85875 | 110.68115 | 24911 ft | 366 kts | 219° |
| 2026-05-04 08:40 | 25.83667 | 110.66618 | 24394 ft | 363 kts | 219° |
| 2026-05-04 08:40 | 25.81468 | 110.65129 | 23755 ft | 361 kts | 218° |
| 2026-05-04 08:41 | 25.79279 | 110.63645 | 23311 ft | 364 kts | 218° |
| 2026-05-04 08:41 | 25.77016 | 110.62270 | 22942 ft | 370 kts | 208° |
| 2026-05-04 08:41 | 25.74415 | 110.61627 | 22555 ft | 385 kts | 192° |
| 2026-05-04 08:41 | 25.71632 | 110.61908 | 21990 ft | 402 kts | 175° |
| 2026-05-04 08:42 | 25.68868 | 110.62779 | 21434 ft | 402 kts | 172° |
| 2026-05-04 08:42 | 25.66132 | 110.63670 | 20924 ft | 397 kts | 172° |
| 2026-05-04 08:42 | 25.63420 | 110.64540 | 20439 ft | 391 kts | 172° |
| 2026-05-04 08:42 | 25.60719 | 110.65395 | 19965 ft | 387 kts | 173° |
| 2026-05-04 08:43 | 25.58047 | 110.65888 | 19478 ft | 367 kts | 190° |
| 2026-05-04 08:43 | 25.55549 | 110.65325 | 19021 ft | 348 kts | 209° |
| 2026-05-04 08:43 | 25.53462 | 110.63941 | 18543 ft | 337 kts | 224° |
| 2026-05-04 08:43 | 25.51589 | 110.62276 | 18064 ft | 336 kts | 224° |
| 2026-05-04 08:44 | 25.49719 | 110.60614 | 17550 ft | 337 kts | 224° |
| 2026-05-04 08:44 | 25.47842 | 110.58957 | 16971 ft | 337 kts | 224° |
| 2026-05-04 08:46 | 25.34951 | 110.47667 | 13359 ft | 318 kts | 223° |
| 2026-05-04 08:46 | 25.33178 | 110.46118 | 12925 ft | 314 kts | 223° |
| 2026-05-04 08:46 | 25.31431 | 110.44592 | 12468 ft | 312 kts | 223° |
| 2026-05-04 08:46 | 25.29706 | 110.43080 | 12008 ft | 309 kts | 222° |
| 2026-05-04 08:47 | 25.27985 | 110.41575 | 11544 ft | 308 kts | 222° |
| 2026-05-04 08:47 | 25.26276 | 110.40082 | 11080 ft | 307 kts | 221° |
| 2026-05-04 08:47 | 25.24576 | 110.38603 | 10672 ft | 301 kts | 221° |
| 2026-05-04 08:47 | 25.22929 | 110.37173 | 10501 ft | 285 kts | 221° |
| 2026-05-04 08:48 | 25.21381 | 110.35826 | 10358 ft | 271 kts | 221° |
| 2026-05-04 08:48 | 25.19915 | 110.34502 | 10206 ft | 261 kts | 227° |
| 2026-05-04 08:48 | 25.18960 | 110.32839 | 10046 ft | 256 kts | 252° |
| 2026-05-04 08:48 | 25.18731 | 110.30859 | 9781 ft | 264 kts | 276° |
| 2026-05-04 08:49 | 25.19321 | 110.28846 | 9793 ft | 278 kts | 299° |
| 2026-05-04 08:50 | 25.26778 | 110.18322 | 9844 ft | 285 kts | 307° |
| 2026-05-04 08:50 | 25.28043 | 110.16545 | 9846 ft | 285 kts | 307° |
| 2026-05-04 08:51 | 25.29297 | 110.14780 | 9847 ft | 285 kts | 306° |
| 2026-05-04 08:51 | 25.30555 | 110.13007 | 9850 ft | 285 kts | 306° |
| 2026-05-04 08:51 | 25.31811 | 110.11237 | 9712 ft | 287 kts | 306° |
| 2026-05-04 08:51 | 25.33078 | 110.09450 | 9304 ft | 287 kts | 306° |
| 2026-05-04 08:52 | 25.34337 | 110.07673 | 8918 ft | 285 kts | 306° |
| 2026-05-04 08:52 | 25.35605 | 110.05883 | 8539 ft | 283 kts | 306° |
| 2026-05-04 08:52 | 25.36842 | 110.04134 | 8171 ft | 281 kts | 307° |
| 2026-05-04 08:52 | 25.38078 | 110.02383 | 7808 ft | 277 kts | 307° |
| 2026-05-04 08:53 | 25.39304 | 110.00647 | 7457 ft | 275 kts | 308° |
| 2026-05-04 08:54 | 25.50155 | 110.00309 | 6174 ft | 220 kts | 73° |
| 2026-05-04 08:55 | 25.50240 | 110.02031 | 5861 ft | 220 kts | 96° |
| 2026-05-04 08:55 | 25.50052 | 110.03758 | 5578 ft | 219 kts | 96° |
| 2026-05-04 08:55 | 25.49559 | 110.05381 | 5245 ft | 222 kts | 127° |
| 2026-05-04 08:55 | 25.48289 | 110.06433 | 4956 ft | 222 kts | 162° |
| 2026-05-04 08:57 | 25.38102 | 110.05481 | 3611 ft | 175 kts | 184° |
| 2026-05-04 09:01 | 25.23596 | 110.04104 | 639 ft | 133 kts | 185° |
| 2026-05-04 09:01 | 25.22691 | 110.04017 | 575 ft | 109 kts | 185° |
| 2026-05-04 09:01 | 25.22098 | 110.03960 | 575 ft | 57 kts | 185° |
| 2026-05-04 09:01 | 25.21821 | 110.03933 | 574 ft | 30 kts | 185° |
| 2026-05-04 09:02 | 25.21663 | 110.03917 | 574 ft | 10 kts | 181° |
| 2026-05-04 09:02 | 25.21632 | 110.03959 | 574 ft | 8 kts | 92° |
| 2026-05-04 09:02 | 25.21627 | 110.04039 | 574 ft | 11 kts | 95° |
| 2026-05-04 09:02 | 25.21620 | 110.04120 | 574 ft | 10 kts | 95° |
| 2026-05-04 09:03 | 25.21601 | 110.04188 | 574 ft | 8 kts | 153° |
| 2026-05-04 09:03 | 25.21521 | 110.04186 | 574 ft | 14 kts | 185° |
| 2026-05-04 09:03 | 25.21414 | 110.04176 | 574 ft | 12 kts | 185° |
| 2026-05-04 09:03 | 25.21341 | 110.04197 | 574 ft | 10 kts | 125° |
| 2026-05-04 09:04 | 25.21321 | 110.04280 | 574 ft | 12 kts | 94° |
| 2026-05-04 09:04 | 25.21318 | 110.04368 | 574 ft | 9 kts | 70° |
| 2026-05-04 09:04 | 25.21350 | 110.04379 | 574 ft | 3 kts | 359° |
| 2026-05-04 09:04 | 25.21365 | 110.04379 | 574 ft | 0 kts | 1° |
| 2026-05-04 09:05 | 25.21367 | 110.04379 | 574 ft | 0 kts | 1° |